Arthur, IN

11:09 AM EDT on April 01, 2015 (GMT -0400)
1 Block West of Oakland City University | | Change Station
CLOSE
Current Station
Personal Weather Station
Location: Oakland City, IN
Elevation: 490 ft
Nearby Weather Stations
Active Advisory: Flood Warning

Elev 490 ft 38.34 °N, 87.35 °W | Updated 2 seconds ago

Clear
Clear
60.7 °F
Feels Like 60.7 °F
N
6.0
Wind Variable Wind from SSE
Gusts 12.0 mph

Today
High -- | Low -- °F
--% Chance of Precip.
Yesterday
High -- | Low -- °F
Precip. -- in
7:34 AM 8:11 PM
Waxing Gibbous, 93% visible
Pressure 30.13 in
Visibility 10.0 miles
Clouds Clear
Dew Point 41 °F
Humidity 48%
Rainfall 0.00 in
Snow Depth Not available.
UV 5 out of 12
Pollen 10.40 out of 12
Air Quality Not available.
Flu Activity Not available.
METAR KHNB 011455Z AUTO 12008KT 10SM CLR 14/03 A3013 RMK AO1 52003

More Conditions Fewer Conditions

Pressure 30.13 in
Visibility 10.0 miles
Clouds Clear
Dew Point 41 °F
Humidity 48%
Rainfall 0.00 in
Snow Depth Not available.
UV 5 out of 12
Pollen 10.40 out of 12
Air Quality Not available.
Flu Activity Not available.
METAR KHNB 011455Z AUTO 12008KT 10SM CLR 14/03 A3013 RMK AO1 52003

More Conditions Fewer Conditions

10-Day Weather Forecast

Almanac

Astronomy

Apr. 01, 2015 Rise Set
Actual Time
Civil Twilight
Nautical Twilight
Astronomical Twilight
Moon
Length of Visible Light
Length of Day
Tomorrow will be .
, % of the Moon is Illuminated

Today's Extremes

State Highs State Lows

Community

WunderPhotos

Upload Photos

1,809,977 photos uploaded!

WunderBlogs® & News

Nearby

Air Quality

  Air Quality AQ Index Pollutant
Not available.

Snow Depth

Station Depth Elevation

Earthquake Activity

City Distance Mag. Time & Date
Minimum magnitude displayed is 2.5.

Coastal Water Temperatures

Place Temperature

Stations

Nearby Weather Stations

Station Location Temp. Windchill Dew Point Humidity Wind Precip. Elev Updated Type
                   
Flood Warning
Statement as of 10:46 AM EDT on March 26, 2015

The Flood Warning continues for
the White River at Petersburg.
* From Saturday morning to Wednesday evening.
* At 9:30 am Thursday the stage was 11.5 feet.
* Flood stage is 16.0 feet.
* Minor flooding is forecast.
* Forecast... rise above flood stage by late Saturday morning and
continue to rise to near 17.2 feet by Sunday evening.The river will
fall below flood stage by Wednesday morning.
* At 17.0 feet... flooding affects low agricultural lands, low oil
fields and closes bottoms Rd... Brothers Rd and east govenors Road
in Knox County. In agricultural season... farmers are concerned at
this stage.


Lat... Lon 3855 8726 3855 8739 3854 8744 3851 8744
      3850 8727 3855 8723